sensor_id;sensor_type;location;lat;lon;timestamp;P1;durP1;ratioP1;P2;durP2;ratioP2
76540;SDS011;65385;55.772;37.658;2023-04-03T00:00:40;15.82;;;7.90;;
76540;SDS011;65385;55.772;37.658;2023-04-03T00:01:41;14.48;;;7.65;;
76540;SDS011;65385;55.772;37.658;2023-04-03T00:02:41;13.98;;;7.93;;
76540;SDS011;65385;55.772;37.658;2023-04-03T00:03:42;14.88;;;8.20;;
76540;SDS011;65385;55.772;37.658;2023-04-03T00:04:43;15.02;;;7.63;;
76540;SDS011;65385;55.772;37.658;2023-04-03T00:05:43;16.25;;;7.40;;
76540;SDS011;65385;55.772;37.658;2023-04-03T00:06:44;14.77;;;7.68;;
76540;SDS011;65385;55.772;37.658;2023-04-03T00:07:45;15.63;;;8.38;;
76540;SDS011;65385;55.772;37.658;2023-04-03T00:08:45;14.60;;;7.75;;
76540;SDS011;65385;55.772;37.658;2023-04-03T00:09:46;14.50;;;7.43;;
76540;SDS011;65385;55.772;37.658;2023-04-03T00:10:46;14.73;;;7.13;;
76540;SDS011;65385;55.772;37.658;2023-04-03T00:11:47;13.25;;;7.22;;
76540;SDS011;65385;55.772;37.658;2023-04-03T00:12:48;12.85;;;6.80;;
76540;SDS011;65385;55.772;37.658;2023-04-03T00:13:48;15.15;;;7.50;;
76540;SDS011;65385;55.772;37.658;2023-04-03T00:14:49;17.70;;;9.32;;
76540;SDS011;65385;55.772;37.658;2023-04-03T00:15:50;12.38;;;7.45;;
76540;SDS011;65385;55.772;37.658;2023-04-03T00:16:51;18.33;;;8.32;;
76540;SDS011;65385;55.772;37.658;2023-04-03T00:17:51;13.93;;;7.68;;
76540;SDS011;65385;55.772;37.658;2023-04-03T00:18:52;13.82;;;7.20;;
76540;SDS011;65385;55.772;37.658;2023-04-03T00:19:52;15.20;;;7.40;;
76540;SDS011;65385;55.772;37.658;2023-04-03T00:20:53;14.60;;;8.30;;
76540;SDS011;65385;55.772;37.658;2023-04-03T00:21:53;12.55;;;7.53;;
76540;SDS011;65385;55.772;37.658;2023-04-03T00:22:54;16.08;;;9.13;;
76540;SDS011;65385;55.772;37.658;2023-04-03T00:23:55;18.58;;;8.77;;
76540;SDS011;65385;55.772;37.658;2023-04-03T00:24:55;17.05;;;7.88;;
76540;SDS011;65385;55.772;37.658;2023-04-03T00:25:56;17.85;;;8.65;;
76540;SDS011;65385;55.772;37.658;2023-04-03T00:26:57;14.40;;;6.93;;
76540;SDS011;65385;55.772;37.658;2023-04-03T00:27:57;19.98;;;8.07;;
76540;SDS011;65385;55.772;37.658;2023-04-03T00:28:58;16.85;;;8.77;;
76540;SDS011;65385;55.772;37.658;2023-04-03T00:29:58;11.68;;;7.50;;
76540;SDS011;65385;55.772;37.658;2023-04-03T00:30:59;14.45;;;7.97;;
76540;SDS011;65385;55.772;37.658;2023-04-03T00:31:59;22.00;;;7.80;;
76540;SDS011;65385;55.772;37.658;2023-04-03T00:33:00;16.48;;;7.50;;
76540;SDS011;65385;55.772;37.658;2023-04-03T00:34:01;16.05;;;7.88;;
76540;SDS011;65385;55.772;37.658;2023-04-03T00:35:02;17.10;;;8.07;;
76540;SDS011;65385;55.772;37.658;2023-04-03T00:36:09;15.60;;;7.95;;
76540;SDS011;65385;55.772;37.658;2023-04-03T00:37:10;15.27;;;7.30;;
76540;SDS011;65385;55.772;37.658;2023-04-03T00:38:11;15.63;;;8.02;;
76540;SDS011;65385;55.772;37.658;2023-04-03T00:39:12;15.85;;;7.95;;
76540;SDS011;65385;55.772;37.658;2023-04-03T00:40:13;16.23;;;7.85;;
76540;SDS011;65385;55.772;37.658;2023-04-03T00:41:15;16.17;;;7.88;;
76540;SDS011;65385;55.772;37.658;2023-04-03T00:42:15;15.93;;;7.68;;
76540;SDS011;65385;55.772;37.658;2023-04-03T00:43:20;13.70;;;8.18;;
76540;SDS011;65385;55.772;37.658;2023-04-03T00:45:34;14.50;;;7.50;;
76540;SDS011;65385;55.772;37.658;2023-04-03T00:46:37;12.32;;;7.47;;
76540;SDS011;65385;55.772;37.658;2023-04-03T00:47:38;14.93;;;8.73;;
76540;SDS011;65385;55.772;37.658;2023-04-03T00:48:44;14.65;;;7.95;;
76540;SDS011;65385;55.772;37.658;2023-04-03T00:49:46;18.13;;;9.07;;
76540;SDS011;65385;55.772;37.658;2023-04-03T00:50:47;14.93;;;8.23;;
76540;SDS011;65385;55.772;37.658;2023-04-03T00:51:48;15.93;;;8.93;;
76540;SDS011;65385;55.772;37.658;2023-04-03T00:52:48;16.35;;;9.25;;
76540;SDS011;65385;55.772;37.658;2023-04-03T00:53:50;14.85;;;7.70;;
76540;SDS011;65385;55.772;37.658;2023-04-03T00:54:56;15.13;;;7.30;;
76540;SDS011;65385;55.772;37.658;2023-04-03T00:55:59;14.73;;;7.65;;
76540;SDS011;65385;55.772;37.658;2023-04-03T00:57:00;17.27;;;8.10;;
76540;SDS011;65385;55.772;37.658;2023-04-03T00:58:01;16.27;;;9.63;;
76540;SDS011;65385;55.772;37.658;2023-04-03T00:59:11;18.92;;;8.90;;
76540;SDS011;65385;55.772;37.658;2023-04-03T01:00:16;14.45;;;8.63;;
76540;SDS011;65385;55.772;37.658;2023-04-03T01:01:24;15.55;;;8.18;;
76540;SDS011;65385;55.772;37.658;2023-04-03T01:02:27;15.10;;;7.70;;
76540;SDS011;65385;55.772;37.658;2023-04-03T01:03:27;16.58;;;8.02;;
76540;SDS011;65385;55.772;37.658;2023-04-03T01:04:35;23.30;;;8.43;;
76540;SDS011;65385;55.772;37.658;2023-04-03T01:05:39;16.80;;;9.27;;
76540;SDS011;65385;55.772;37.658;2023-04-03T01:06:40;15.48;;;8.55;;
76540;SDS011;65385;55.772;37.658;2023-04-03T01:07:42;16.35;;;8.77;;
76540;SDS011;65385;55.772;37.658;2023-04-03T01:08:42;18.52;;;9.57;;
76540;SDS011;65385;55.772;37.658;2023-04-03T01:09:44;17.42;;;8.65;;
76540;SDS011;65385;55.772;37.658;2023-04-03T01:10:47;18.35;;;9.93;;
76540;SDS011;65385;55.772;37.658;2023-04-03T01:11:48;18.98;;;9.05;;
76540;SDS011;65385;55.772;37.658;2023-04-03T01:12:49;19.15;;;8.52;;
76540;SDS011;65385;55.772;37.658;2023-04-03T01:13:50;14.75;;;8.15;;
76540;SDS011;65385;55.772;37.658;2023-04-03T01:14:55;18.13;;;8.77;;
76540;SDS011;65385;55.772;37.658;2023-04-03T01:16:00;19.70;;;8.73;;
76540;SDS011;65385;55.772;37.658;2023-04-03T01:17:03;16.05;;;8.68;;
76540;SDS011;65385;55.772;37.658;2023-04-03T01:18:25;16.70;;;8.38;;
76540;SDS011;65385;55.772;37.658;2023-04-03T01:19:26;17.90;;;8.45;;
76540;SDS011;65385;55.772;37.658;2023-04-03T01:22:59;17.17;;;8.63;;
76540;SDS011;65385;55.772;37.658;2023-04-03T01:24:11;15.10;;;8.00;;
76540;SDS011;65385;55.772;37.658;2023-04-03T01:25:15;16.80;;;8.10;;
76540;SDS011;65385;55.772;37.658;2023-04-03T01:26:16;14.63;;;8.82;;
76540;SDS011;65385;55.772;37.658;2023-04-03T01:27:16;16.77;;;9.55;;
76540;SDS011;65385;55.772;37.658;2023-04-03T01:28:19;14.90;;;8.63;;
76540;SDS011;65385;55.772;37.658;2023-04-03T01:29:21;23.95;;;8.75;;
76540;SDS011;65385;55.772;37.658;2023-04-03T01:30:30;17.60;;;9.82;;
76540;SDS011;65385;55.772;37.658;2023-04-03T01:32:34;19.45;;;8.75;;
76540;SDS011;65385;55.772;37.658;2023-04-03T01:33:36;15.65;;;7.97;;
76540;SDS011;65385;55.772;37.658;2023-04-03T01:34:38;16.85;;;8.75;;
76540;SDS011;65385;55.772;37.658;2023-04-03T01:35:38;18.70;;;10.18;;
76540;SDS011;65385;55.772;37.658;2023-04-03T01:36:39;18.13;;;9.05;;
76540;SDS011;65385;55.772;37.658;2023-04-03T01:37:40;17.42;;;8.23;;
76540;SDS011;65385;55.772;37.658;2023-04-03T01:38:40;16.65;;;8.27;;
76540;SDS011;65385;55.772;37.658;2023-04-03T01:39:41;19.50;;;9.48;;
76540;SDS011;65385;55.772;37.658;2023-04-03T01:40:42;16.90;;;8.13;;
76540;SDS011;65385;55.772;37.658;2023-04-03T01:41:43;19.73;;;8.63;;
76540;SDS011;65385;55.772;37.658;2023-04-03T01:42:52;19.27;;;9.23;;
76540;SDS011;65385;55.772;37.658;2023-04-03T01:43:52;19.17;;;9.93;;
76540;SDS011;65385;55.772;37.658;2023-04-03T01:44:53;20.55;;;9.07;;
76540;SDS011;65385;55.772;37.658;2023-04-03T01:45:53;17.13;;;9.23;;
76540;SDS011;65385;55.772;37.658;2023-04-03T01:46:55;15.75;;;8.55;;
76540;SDS011;65385;55.772;37.658;2023-04-03T01:47:57;17.38;;;7.88;;
76540;SDS011;65385;55.772;37.658;2023-04-03T01:48:59;20.35;;;8.68;;
76540;SDS011;65385;55.772;37.658;2023-04-03T01:49:59;16.23;;;8.60;;
76540;SDS011;65385;55.772;37.658;2023-04-03T01:51:00;17.80;;;8.35;;
76540;SDS011;65385;55.772;37.658;2023-04-03T01:52:01;17.27;;;7.85;;
76540;SDS011;65385;55.772;37.658;2023-04-03T01:53:01;20.13;;;8.95;;
76540;SDS011;65385;55.772;37.658;2023-04-03T01:54:02;15.93;;;7.25;;
76540;SDS011;65385;55.772;37.658;2023-04-03T01:55:03;16.20;;;9.70;;
76540;SDS011;65385;55.772;37.658;2023-04-03T01:56:04;18.60;;;8.48;;
76540;SDS011;65385;55.772;37.658;2023-04-03T01:57:06;23.13;;;9.25;;
76540;SDS011;65385;55.772;37.658;2023-04-03T01:58:07;15.65;;;9.23;;
76540;SDS011;65385;55.772;37.658;2023-04-03T01:59:08;19.88;;;8.32;;
76540;SDS011;65385;55.772;37.658;2023-04-03T02:00:09;19.42;;;8.18;;
76540;SDS011;65385;55.772;37.658;2023-04-03T02:01:16;17.38;;;8.65;;
76540;SDS011;65385;55.772;37.658;2023-04-03T02:02:16;14.45;;;8.65;;
76540;SDS011;65385;55.772;37.658;2023-04-03T02:03:17;16.23;;;7.40;;
76540;SDS011;65385;55.772;37.658;2023-04-03T02:04:18;17.67;;;9.25;;
76540;SDS011;65385;55.772;37.658;2023-04-03T02:05:19;18.25;;;8.32;;
76540;SDS011;65385;55.772;37.658;2023-04-03T02:06:20;16.83;;;9.48;;
76540;SDS011;65385;55.772;37.658;2023-04-03T02:07:20;17.88;;;9.35;;
76540;SDS011;65385;55.772;37.658;2023-04-03T02:08:21;18.00;;;8.57;;
76540;SDS011;65385;55.772;37.658;2023-04-03T02:09:22;17.35;;;8.07;;
76540;SDS011;65385;55.772;37.658;2023-04-03T02:10:22;18.63;;;8.65;;
76540;SDS011;65385;55.772;37.658;2023-04-03T02:11:23;16.52;;;8.13;;
76540;SDS011;65385;55.772;37.658;2023-04-03T02:12:23;18.88;;;8.85;;
76540;SDS011;65385;55.772;37.658;2023-04-03T02:13:24;17.02;;;8.77;;
76540;SDS011;65385;55.772;37.658;2023-04-03T02:14:25;16.73;;;8.88;;
76540;SDS011;65385;55.772;37.658;2023-04-03T02:15:27;17.30;;;9.70;;
76540;SDS011;65385;55.772;37.658;2023-04-03T02:16:28;14.68;;;7.68;;
76540;SDS011;65385;55.772;37.658;2023-04-03T02:17:28;18.85;;;9.13;;
76540;SDS011;65385;55.772;37.658;2023-04-03T02:18:29;18.60;;;9.32;;
76540;SDS011;65385;55.772;37.658;2023-04-03T02:19:29;17.70;;;9.35;;
76540;SDS011;65385;55.772;37.658;2023-04-03T02:20:30;17.00;;;8.60;;
76540;SDS011;65385;55.772;37.658;2023-04-03T02:21:31;17.13;;;8.65;;
76540;SDS011;65385;55.772;37.658;2023-04-03T02:22:31;14.25;;;8.20;;
76540;SDS011;65385;55.772;37.658;2023-04-03T02:23:32;15.30;;;9.45;;
76540;SDS011;65385;55.772;37.658;2023-04-03T02:24:33;22.23;;;9.00;;
76540;SDS011;65385;55.772;37.658;2023-04-03T02:25:33;19.83;;;9.57;;
76540;SDS011;65385;55.772;37.658;2023-04-03T02:26:34;16.15;;;9.23;;
76540;SDS011;65385;55.772;37.658;2023-04-03T02:27:34;18.00;;;9.95;;
76540;SDS011;65385;55.772;37.658;2023-04-03T02:28:35;15.88;;;9.02;;
76540;SDS011;65385;55.772;37.658;2023-04-03T02:29:36;18.08;;;8.52;;
76540;SDS011;65385;55.772;37.658;2023-04-03T02:30:36;17.02;;;8.93;;
76540;SDS011;65385;55.772;37.658;2023-04-03T02:31:38;19.80;;;9.65;;
76540;SDS011;65385;55.772;37.658;2023-04-03T02:32:39;17.30;;;9.55;;
76540;SDS011;65385;55.772;37.658;2023-04-03T02:33:40;18.08;;;9.52;;
76540;SDS011;65385;55.772;37.658;2023-04-03T02:34:43;17.63;;;9.73;;
76540;SDS011;65385;55.772;37.658;2023-04-03T02:35:45;18.23;;;9.43;;
76540;SDS011;65385;55.772;37.658;2023-04-03T02:36:53;22.15;;;10.25;;
76540;SDS011;65385;55.772;37.658;2023-04-03T02:37:54;19.48;;;10.27;;
76540;SDS011;65385;55.772;37.658;2023-04-03T02:38:56;20.42;;;11.00;;
76540;SDS011;65385;55.772;37.658;2023-04-03T02:39:56;20.83;;;10.60;;
76540;SDS011;65385;55.772;37.658;2023-04-03T02:41:01;19.42;;;10.65;;
76540;SDS011;65385;55.772;37.658;2023-04-03T02:42:02;22.85;;;11.80;;
76540;SDS011;65385;55.772;37.658;2023-04-03T02:43:03;21.05;;;10.70;;
76540;SDS011;65385;55.772;37.658;2023-04-03T02:44:04;16.60;;;9.40;;
76540;SDS011;65385;55.772;37.658;2023-04-03T02:45:06;19.10;;;9.95;;
76540;SDS011;65385;55.772;37.658;2023-04-03T02:46:07;22.67;;;11.60;;
76540;SDS011;65385;55.772;37.658;2023-04-03T02:47:08;20.98;;;11.10;;
76540;SDS011;65385;55.772;37.658;2023-04-03T02:48:09;22.45;;;11.02;;
76540;SDS011;65385;55.772;37.658;2023-04-03T02:49:09;20.58;;;10.25;;
76540;SDS011;65385;55.772;37.658;2023-04-03T02:50:10;19.17;;;10.20;;
76540;SDS011;65385;55.772;37.658;2023-04-03T02:51:11;20.05;;;10.70;;
76540;SDS011;65385;55.772;37.658;2023-04-03T02:52:12;19.25;;;10.80;;
76540;SDS011;65385;55.772;37.658;2023-04-03T02:53:13;23.27;;;11.00;;
76540;SDS011;65385;55.772;37.658;2023-04-03T02:54:13;19.17;;;10.60;;
76540;SDS011;65385;55.772;37.658;2023-04-03T02:55:19;19.15;;;9.82;;
76540;SDS011;65385;55.772;37.658;2023-04-03T02:56:22;22.70;;;11.48;;
76540;SDS011;65385;55.772;37.658;2023-04-03T02:57:22;22.00;;;10.43;;
76540;SDS011;65385;55.772;37.658;2023-04-03T02:58:23;22.55;;;11.05;;
76540;SDS011;65385;55.772;37.658;2023-04-03T02:59:24;21.30;;;10.88;;
76540;SDS011;65385;55.772;37.658;2023-04-03T03:00:25;18.95;;;10.38;;
76540;SDS011;65385;55.772;37.658;2023-04-03T03:01:26;21.67;;;9.73;;
76540;SDS011;65385;55.772;37.658;2023-04-03T03:02:31;24.98;;;10.13;;
76540;SDS011;65385;55.772;37.658;2023-04-03T03:03:31;20.63;;;9.73;;
76540;SDS011;65385;55.772;37.658;2023-04-03T03:04:32;21.40;;;10.57;;
76540;SDS011;65385;55.772;37.658;2023-04-03T03:05:32;18.63;;;10.52;;
76540;SDS011;65385;55.772;37.658;2023-04-03T03:06:33;22.23;;;10.73;;
76540;SDS011;65385;55.772;37.658;2023-04-03T03:07:33;19.70;;;10.80;;
76540;SDS011;65385;55.772;37.658;2023-04-03T03:08:34;22.98;;;10.27;;
76540;SDS011;65385;55.772;37.658;2023-04-03T03:09:36;21.90;;;11.32;;
76540;SDS011;65385;55.772;37.658;2023-04-03T03:10:36;20.63;;;12.18;;
76540;SDS011;65385;55.772;37.658;2023-04-03T03:11:37;21.40;;;10.65;;
76540;SDS011;65385;55.772;37.658;2023-04-03T03:12:37;26.27;;;11.43;;
76540;SDS011;65385;55.772;37.658;2023-04-03T03:13:38;23.05;;;10.32;;
76540;SDS011;65385;55.772;37.658;2023-04-03T03:14:38;22.80;;;10.10;;
76540;SDS011;65385;55.772;37.658;2023-04-03T03:15:40;22.08;;;11.27;;
76540;SDS011;65385;55.772;37.658;2023-04-03T03:16:41;22.67;;;10.45;;
76540;SDS011;65385;55.772;37.658;2023-04-03T03:17:41;19.55;;;10.48;;
76540;SDS011;65385;55.772;37.658;2023-04-03T03:18:42;24.95;;;11.35;;
76540;SDS011;65385;55.772;37.658;2023-04-03T03:19:42;20.42;;;12.20;;
76540;SDS011;65385;55.772;37.658;2023-04-03T03:20:44;19.63;;;11.05;;
76540;SDS011;65385;55.772;37.658;2023-04-03T03:21:45;25.27;;;12.00;;
76540;SDS011;65385;55.772;37.658;2023-04-03T03:22:45;22.75;;;11.40;;
76540;SDS011;65385;55.772;37.658;2023-04-03T03:23:46;23.75;;;11.40;;
76540;SDS011;65385;55.772;37.658;2023-04-03T03:24:47;24.33;;;11.02;;
76540;SDS011;65385;55.772;37.658;2023-04-03T03:25:48;19.65;;;10.88;;
76540;SDS011;65385;55.772;37.658;2023-04-03T03:26:49;19.25;;;10.35;;
76540;SDS011;65385;55.772;37.658;2023-04-03T03:27:49;26.42;;;11.40;;
76540;SDS011;65385;55.772;37.658;2023-04-03T03:28:50;21.10;;;11.63;;
76540;SDS011;65385;55.772;37.658;2023-04-03T03:29:51;18.20;;;10.02;;
76540;SDS011;65385;55.772;37.658;2023-04-03T03:30:51;18.48;;;11.30;;
76540;SDS011;65385;55.772;37.658;2023-04-03T03:31:52;19.65;;;10.55;;
76540;SDS011;65385;55.772;37.658;2023-04-03T03:32:53;19.73;;;10.80;;
76540;SDS011;65385;55.772;37.658;2023-04-03T03:33:54;20.83;;;12.13;;
76540;SDS011;65385;55.772;37.658;2023-04-03T03:34:56;19.33;;;10.63;;
76540;SDS011;65385;55.772;37.658;2023-04-03T03:35:56;23.08;;;10.50;;
76540;SDS011;65385;55.772;37.658;2023-04-03T03:36:57;20.90;;;10.82;;
76540;SDS011;65385;55.772;37.658;2023-04-03T03:37:57;21.13;;;10.65;;
76540;SDS011;65385;55.772;37.658;2023-04-03T03:38:58;19.00;;;10.57;;
76540;SDS011;65385;55.772;37.658;2023-04-03T03:39:59;22.15;;;10.38;;
76540;SDS011;65385;55.772;37.658;2023-04-03T03:41:00;20.15;;;9.95;;
76540;SDS011;65385;55.772;37.658;2023-04-03T03:42:01;20.50;;;10.73;;
76540;SDS011;65385;55.772;37.658;2023-04-03T03:43:02;21.95;;;10.52;;
76540;SDS011;65385;55.772;37.658;2023-04-03T03:44:03;19.00;;;10.35;;
76540;SDS011;65385;55.772;37.658;2023-04-03T03:45:06;22.48;;;10.15;;
76540;SDS011;65385;55.772;37.658;2023-04-03T03:46:07;18.85;;;11.10;;
76540;SDS011;65385;55.772;37.658;2023-04-03T03:47:07;22.83;;;11.85;;
76540;SDS011;65385;55.772;37.658;2023-04-03T03:48:11;18.38;;;10.40;;
76540;SDS011;65385;55.772;37.658;2023-04-03T03:49:12;20.52;;;9.80;;
76540;SDS011;65385;55.772;37.658;2023-04-03T03:50:13;22.48;;;11.35;;
76540;SDS011;65385;55.772;37.658;2023-04-03T03:51:13;19.25;;;10.75;;
76540;SDS011;65385;55.772;37.658;2023-04-03T03:52:14;20.48;;;10.32;;
76540;SDS011;65385;55.772;37.658;2023-04-03T03:53:15;19.13;;;10.32;;
76540;SDS011;65385;55.772;37.658;2023-04-03T03:54:16;17.98;;;9.57;;
76540;SDS011;65385;55.772;37.658;2023-04-03T03:55:17;19.98;;;9.63;;
76540;SDS011;65385;55.772;37.658;2023-04-03T03:56:19;16.98;;;9.65;;
76540;SDS011;65385;55.772;37.658;2023-04-03T03:57:20;22.58;;;10.82;;
76540;SDS011;65385;55.772;37.658;2023-04-03T03:58:21;19.08;;;10.48;;
76540;SDS011;65385;55.772;37.658;2023-04-03T03:59:22;18.10;;;10.05;;
76540;SDS011;65385;55.772;37.658;2023-04-03T04:00:22;17.30;;;9.93;;
76540;SDS011;65385;55.772;37.658;2023-04-03T04:01:28;19.58;;;10.60;;
76540;SDS011;65385;55.772;37.658;2023-04-03T04:02:29;19.08;;;10.27;;
76540;SDS011;65385;55.772;37.658;2023-04-03T04:03:30;20.05;;;9.93;;
76540;SDS011;65385;55.772;37.658;2023-04-03T04:04:30;20.23;;;9.70;;
76540;SDS011;65385;55.772;37.658;2023-04-03T04:05:31;23.88;;;9.40;;
76540;SDS011;65385;55.772;37.658;2023-04-03T04:06:33;20.10;;;11.07;;
76540;SDS011;65385;55.772;37.658;2023-04-03T04:07:37;21.73;;;10.68;;
76540;SDS011;65385;55.772;37.658;2023-04-03T04:08:38;21.45;;;10.40;;
76540;SDS011;65385;55.772;37.658;2023-04-03T04:09:41;22.15;;;10.73;;
76540;SDS011;65385;55.772;37.658;2023-04-03T04:10:43;21.48;;;10.40;;
76540;SDS011;65385;55.772;37.658;2023-04-03T04:11:43;20.88;;;11.02;;
76540;SDS011;65385;55.772;37.658;2023-04-03T04:12:46;17.17;;;9.77;;
76540;SDS011;65385;55.772;37.658;2023-04-03T04:13:47;18.58;;;9.27;;
76540;SDS011;65385;55.772;37.658;2023-04-03T04:14:49;16.35;;;9.80;;
76540;SDS011;65385;55.772;37.658;2023-04-03T04:15:50;15.15;;;9.13;;
76540;SDS011;65385;55.772;37.658;2023-04-03T04:16:51;17.80;;;9.90;;
76540;SDS011;65385;55.772;37.658;2023-04-03T04:17:57;17.38;;;10.20;;
76540;SDS011;65385;55.772;37.658;2023-04-03T04:18:57;20.63;;;12.27;;
76540;SDS011;65385;55.772;37.658;2023-04-03T04:19:59;32.33;;;11.93;;
76540;SDS011;65385;55.772;37.658;2023-04-03T04:20:59;20.90;;;11.10;;
76540;SDS011;65385;55.772;37.658;2023-04-03T04:22:00;21.40;;;11.55;;
76540;SDS011;65385;55.772;37.658;2023-04-03T04:23:00;19.63;;;9.82;;
76540;SDS011;65385;55.772;37.658;2023-04-03T04:24:02;17.75;;;10.07;;
76540;SDS011;65385;55.772;37.658;2023-04-03T04:25:03;18.25;;;10.20;;
76540;SDS011;65385;55.772;37.658;2023-04-03T04:26:04;20.02;;;10.40;;
76540;SDS011;65385;55.772;37.658;2023-04-03T04:27:08;18.20;;;9.82;;
76540;SDS011;65385;55.772;37.658;2023-04-03T04:28:09;20.83;;;10.88;;
76540;SDS011;65385;55.772;37.658;2023-04-03T04:29:10;20.10;;;9.93;;
76540;SDS011;65385;55.772;37.658;2023-04-03T04:30:11;20.35;;;10.98;;
76540;SDS011;65385;55.772;37.658;2023-04-03T04:31:13;22.95;;;11.40;;
76540;SDS011;65385;55.772;37.658;2023-04-03T04:32:14;23.02;;;10.55;;
76540;SDS011;65385;55.772;37.658;2023-04-03T04:33:15;19.48;;;10.02;;
76540;SDS011;65385;55.772;37.658;2023-04-03T04:34:17;19.35;;;10.05;;
76540;SDS011;65385;55.772;37.658;2023-04-03T04:35:17;18.70;;;10.35;;
76540;SDS011;65385;55.772;37.658;2023-04-03T04:36:20;20.35;;;9.43;;
76540;SDS011;65385;55.772;37.658;2023-04-03T04:37:22;18.10;;;9.05;;
76540;SDS011;65385;55.772;37.658;2023-04-03T04:38:22;17.65;;;9.60;;
76540;SDS011;65385;55.772;37.658;2023-04-03T04:39:25;18.20;;;11.00;;
76540;SDS011;65385;55.772;37.658;2023-04-03T04:40:29;21.85;;;11.43;;
76540;SDS011;65385;55.772;37.658;2023-04-03T04:41:30;22.05;;;9.43;;
76540;SDS011;65385;55.772;37.658;2023-04-03T04:42:30;18.30;;;9.90;;
76540;SDS011;65385;55.772;37.658;2023-04-03T04:43:31;18.08;;;9.15;;
76540;SDS011;65385;55.772;37.658;2023-04-03T04:44:32;19.75;;;9.90;;
76540;SDS011;65385;55.772;37.658;2023-04-03T04:45:33;20.05;;;9.75;;
76540;SDS011;65385;55.772;37.658;2023-04-03T04:46:33;18.58;;;9.27;;
76540;SDS011;65385;55.772;37.658;2023-04-03T04:47:34;21.35;;;10.88;;
76540;SDS011;65385;55.772;37.658;2023-04-03T04:48:35;16.85;;;9.45;;
76540;SDS011;65385;55.772;37.658;2023-04-03T04:49:36;18.58;;;9.63;;
76540;SDS011;65385;55.772;37.658;2023-04-03T04:50:37;20.60;;;11.10;;
76540;SDS011;65385;55.772;37.658;2023-04-03T04:51:38;19.70;;;9.02;;
76540;SDS011;65385;55.772;37.658;2023-04-03T04:52:38;19.50;;;9.82;;
76540;SDS011;65385;55.772;37.658;2023-04-03T04:53:40;19.05;;;9.85;;
76540;SDS011;65385;55.772;37.658;2023-04-03T04:54:43;22.08;;;10.70;;
76540;SDS011;65385;55.772;37.658;2023-04-03T04:55:44;21.02;;;10.82;;
76540;SDS011;65385;55.772;37.658;2023-04-03T04:56:44;17.13;;;9.48;;
76540;SDS011;65385;55.772;37.658;2023-04-03T04:57:45;18.13;;;9.88;;
76540;SDS011;65385;55.772;37.658;2023-04-03T04:58:46;21.85;;;9.93;;
76540;SDS011;65385;55.772;37.658;2023-04-03T04:59:46;19.42;;;9.85;;
76540;SDS011;65385;55.772;37.658;2023-04-03T05:00:47;19.73;;;11.35;;
76540;SDS011;65385;55.772;37.658;2023-04-03T05:01:48;15.77;;;9.50;;
76540;SDS011;65385;55.772;37.658;2023-04-03T05:02:50;19.20;;;9.98;;
76540;SDS011;65385;55.772;37.658;2023-04-03T05:03:53;21.80;;;9.88;;
76540;SDS011;65385;55.772;37.658;2023-04-03T05:04:54;19.45;;;9.70;;
76540;SDS011;65385;55.772;37.658;2023-04-03T05:05:59;19.63;;;10.75;;
76540;SDS011;65385;55.772;37.658;2023-04-03T05:07:02;23.85;;;9.40;;
76540;SDS011;65385;55.772;37.658;2023-04-03T05:08:05;21.98;;;10.05;;
76540;SDS011;65385;55.772;37.658;2023-04-03T05:09:06;16.58;;;8.85;;
76540;SDS011;65385;55.772;37.658;2023-04-03T05:10:08;19.77;;;9.90;;
76540;SDS011;65385;55.772;37.658;2023-04-03T05:11:09;18.67;;;10.98;;
76540;SDS011;65385;55.772;37.658;2023-04-03T05:12:10;19.88;;;10.13;;
76540;SDS011;65385;55.772;37.658;2023-04-03T05:13:15;17.65;;;9.52;;
76540;SDS011;65385;55.772;37.658;2023-04-03T05:14:16;18.38;;;9.73;;
76540;SDS011;65385;55.772;37.658;2023-04-03T05:15:17;21.60;;;10.50;;
76540;SDS011;65385;55.772;37.658;2023-04-03T05:16:18;21.42;;;9.68;;
76540;SDS011;65385;55.772;37.658;2023-04-03T05:17:19;20.92;;;10.52;;
76540;SDS011;65385;55.772;37.658;2023-04-03T05:18:23;21.48;;;9.35;;
76540;SDS011;65385;55.772;37.658;2023-04-03T05:19:25;19.35;;;10.20;;
76540;SDS011;65385;55.772;37.658;2023-04-03T05:20:26;19.73;;;9.85;;
76540;SDS011;65385;55.772;37.658;2023-04-03T05:21:26;20.60;;;10.15;;
76540;SDS011;65385;55.772;37.658;2023-04-03T05:22:32;20.42;;;11.38;;
76540;SDS011;65385;55.772;37.658;2023-04-03T05:23:38;20.67;;;9.43;;
76540;SDS011;65385;55.772;37.658;2023-04-03T05:24:39;17.80;;;9.13;;
76540;SDS011;65385;55.772;37.658;2023-04-03T05:25:41;19.60;;;10.25;;
76540;SDS011;65385;55.772;37.658;2023-04-03T05:26:43;18.58;;;10.57;;
76540;SDS011;65385;55.772;37.658;2023-04-03T05:27:45;18.13;;;10.35;;
76540;SDS011;65385;55.772;37.658;2023-04-03T05:28:46;18.48;;;10.55;;
76540;SDS011;65385;55.772;37.658;2023-04-03T05:29:46;19.80;;;10.32;;
76540;SDS011;65385;55.772;37.658;2023-04-03T05:30:53;18.10;;;10.05;;
76540;SDS011;65385;55.772;37.658;2023-04-03T05:32:00;18.27;;;10.43;;
76540;SDS011;65385;55.772;37.658;2023-04-03T05:33:01;18.83;;;10.10;;
76540;SDS011;65385;55.772;37.658;2023-04-03T05:34:14;22.65;;;10.13;;
76540;SDS011;65385;55.772;37.658;2023-04-03T05:35:16;23.13;;;12.07;;
76540;SDS011;65385;55.772;37.658;2023-04-03T05:36:17;17.75;;;10.43;;
76540;SDS011;65385;55.772;37.658;2023-04-03T05:37:22;20.30;;;9.82;;
76540;SDS011;65385;55.772;37.658;2023-04-03T05:38:24;20.48;;;11.07;;
76540;SDS011;65385;55.772;37.658;2023-04-03T05:39:25;22.08;;;9.85;;
76540;SDS011;65385;55.772;37.658;2023-04-03T05:40:26;19.23;;;10.60;;
76540;SDS011;65385;55.772;37.658;2023-04-03T05:41:29;20.83;;;10.77;;
76540;SDS011;65385;55.772;37.658;2023-04-03T05:42:29;21.17;;;10.80;;
76540;SDS011;65385;55.772;37.658;2023-04-03T05:43:30;19.92;;;11.32;;
76540;SDS011;65385;55.772;37.658;2023-04-03T05:44:31;18.52;;;9.95;;
76540;SDS011;65385;55.772;37.658;2023-04-03T05:45:32;22.17;;;11.25;;
76540;SDS011;65385;55.772;37.658;2023-04-03T05:46:33;17.98;;;9.70;;
76540;SDS011;65385;55.772;37.658;2023-04-03T05:47:37;21.33;;;11.23;;
76540;SDS011;65385;55.772;37.658;2023-04-03T05:48:40;19.67;;;10.88;;
76540;SDS011;65385;55.772;37.658;2023-04-03T05:49:40;19.08;;;10.77;;
76540;SDS011;65385;55.772;37.658;2023-04-03T05:50:41;25.02;;;11.57;;
76540;SDS011;65385;55.772;37.658;2023-04-03T05:51:44;20.40;;;12.15;;
76540;SDS011;65385;55.772;37.658;2023-04-03T05:52:53;23.52;;;11.40;;
76540;SDS011;65385;55.772;37.658;2023-04-03T05:54:06;25.55;;;11.93;;
76540;SDS011;65385;55.772;37.658;2023-04-03T05:55:12;21.75;;;11.07;;
76540;SDS011;65385;55.772;37.658;2023-04-03T05:56:13;20.15;;;10.95;;
76540;SDS011;65385;55.772;37.658;2023-04-03T05:57:15;24.30;;;11.50;;
76540;SDS011;65385;55.772;37.658;2023-04-03T05:58:19;25.58;;;12.18;;
76540;SDS011;65385;55.772;37.658;2023-04-03T05:59:21;19.77;;;12.23;;
76540;SDS011;65385;55.772;37.658;2023-04-03T06:00:24;23.52;;;10.90;;
76540;SDS011;65385;55.772;37.658;2023-04-03T06:01:33;25.35;;;12.23;;
76540;SDS011;65385;55.772;37.658;2023-04-03T06:02:35;20.83;;;11.27;;
76540;SDS011;65385;55.772;37.658;2023-04-03T06:03:36;23.73;;;10.73;;